<?xml version="1.0" encoding="utf-8"?>
<gpx xmlns:xsi="http://www.w3.org/2001/XMLSchema-instance" xmlns:xsd="http://www.w3.org/2001/XMLSchema" version="1.1" creator="Shapelink.com" xmlns="http://www.topografix.com/GPX/1/1" xmlns:gpxtpx="http://www.garmin.com/xmlschemas/TrackPointExtension/v1">
  <metadata>
    <name>Löpning 5.04 km, 2019-05-25</name>
    <desc></desc>
    <author><name>Marian Moron</name></author> 
    <time>2019-05-25T10:57:07Z</time>
  </metadata>
  <trk>
    <name>Löpning 5.04 km, 2019-05-25</name>
    <trkseg>
      <trkpt lat="51.215298783174" lon="4.482755119668">
        <ele>2.6</ele>
        <time>2019-05-25T10:57:07Z</time>
      </trkpt>
      <trkpt lat="51.215130809898" lon="4.482573651533">
        <ele>2.4</ele>
        <time>2019-05-25T10:57:14Z</time>
      </trkpt>
      <trkpt lat="51.214932997058" lon="4.482553199697">
        <ele>2.2</ele>
        <time>2019-05-25T10:57:21Z</time>
      </trkpt>
      <trkpt lat="51.214753792036" lon="4.482691920142">
        <ele>2</ele>
        <time>2019-05-25T10:57:28Z</time>
      </trkpt>
      <trkpt lat="51.214630159011" lon="4.482918063804">
        <ele>1.6</ele>
        <time>2019-05-25T10:57:34Z</time>
      </trkpt>
      <trkpt lat="51.214585232027" lon="4.483198103083">
        <ele>1.6</ele>
        <time>2019-05-25T10:57:40Z</time>
      </trkpt>
      <trkpt lat="51.214603923664" lon="4.483525835373">
        <ele>2.2</ele>
        <time>2019-05-25T10:57:47Z</time>
      </trkpt>
      <trkpt lat="51.214625129871" lon="4.48385046636">
        <ele>2.6</ele>
        <time>2019-05-25T10:57:54Z</time>
      </trkpt>
      <trkpt lat="51.214636026341" lon="4.484173085691">
        <ele>2.8</ele>
        <time>2019-05-25T10:58:02Z</time>
      </trkpt>
      <trkpt lat="51.214652538684" lon="4.484488664226">
        <ele>2.8</ele>
        <time>2019-05-25T10:58:09Z</time>
      </trkpt>
      <trkpt lat="51.214751361285" lon="4.484789825893">
        <ele>2.6</ele>
        <time>2019-05-25T10:58:17Z</time>
      </trkpt>
      <trkpt lat="51.214840377063" lon="4.484948411441">
        <ele>3.4</ele>
        <time>2019-05-25T10:58:23Z</time>
      </trkpt>
      <trkpt lat="51.214952610704" lon="4.48497615553">
        <ele>3</ele>
        <time>2019-05-25T11:00:52Z</time>
      </trkpt>
      <trkpt lat="51.215136677228" lon="4.484937347333">
        <ele>3.4</ele>
        <time>2019-05-25T11:00:59Z</time>
      </trkpt>
      <trkpt lat="51.215307248893" lon="4.484760237786">
        <ele>2.6</ele>
        <time>2019-05-25T11:01:06Z</time>
      </trkpt>
      <trkpt lat="51.215425517502" lon="4.484506601492">
        <ele>2.4</ele>
        <time>2019-05-25T11:01:13Z</time>
      </trkpt>
      <trkpt lat="51.215457620179" lon="4.484217509761">
        <ele>3</ele>
        <time>2019-05-25T11:01:20Z</time>
      </trkpt>
      <trkpt lat="51.215435994877" lon="4.483888771643">
        <ele>3</ele>
        <time>2019-05-25T11:01:27Z</time>
      </trkpt>
      <trkpt lat="51.215414201937" lon="4.483562883371">
        <ele>3.6</ele>
        <time>2019-05-25T11:01:34Z</time>
      </trkpt>
      <trkpt lat="51.215404562752" lon="4.483274713649">
        <ele>3.6</ele>
        <time>2019-05-25T11:01:40Z</time>
      </trkpt>
      <trkpt lat="51.215383188907" lon="4.482960560037">
        <ele>4.2</ele>
        <time>2019-05-25T11:01:47Z</time>
      </trkpt>
      <trkpt lat="51.215258214778" lon="4.482704241535">
        <ele>3.8</ele>
        <time>2019-05-25T11:01:54Z</time>
      </trkpt>
      <trkpt lat="51.215088481303" lon="4.482568370936">
        <ele>3</ele>
        <time>2019-05-25T11:02:01Z</time>
      </trkpt>
      <trkpt lat="51.21489762544" lon="4.482596701758">
        <ele>3.2</ele>
        <time>2019-05-25T11:02:07Z</time>
      </trkpt>
      <trkpt lat="51.214762090117" lon="4.48273818823">
        <ele>5</ele>
        <time>2019-05-25T11:02:14Z</time>
      </trkpt>
      <trkpt lat="51.214750187819" lon="4.482862994721">
        <ele>1.8</ele>
        <time>2019-05-25T11:02:52Z</time>
      </trkpt>
      <trkpt lat="51.214624040224" lon="4.483079583017">
        <ele>1.6</ele>
        <time>2019-05-25T11:03:00Z</time>
      </trkpt>
      <trkpt lat="51.214600654723" lon="4.483378146295">
        <ele>0.4</ele>
        <time>2019-05-25T11:03:06Z</time>
      </trkpt>
      <trkpt lat="51.21461012627" lon="4.483681068161">
        <ele>0</ele>
        <time>2019-05-25T11:03:13Z</time>
      </trkpt>
      <trkpt lat="51.214619597817" lon="4.483992204289">
        <ele>0</ele>
        <time>2019-05-25T11:03:20Z</time>
      </trkpt>
      <trkpt lat="51.214627644441" lon="4.484308034281">
        <ele>0</ele>
        <time>2019-05-25T11:03:27Z</time>
      </trkpt>
      <trkpt lat="51.214682797343" lon="4.484595533451">
        <ele>0</ele>
        <time>2019-05-25T11:03:34Z</time>
      </trkpt>
      <trkpt lat="51.214811962422" lon="4.484805751503">
        <ele>0</ele>
        <time>2019-05-25T11:03:41Z</time>
      </trkpt>
      <trkpt lat="51.214985886847" lon="4.484920667352">
        <ele>0</ele>
        <time>2019-05-25T11:03:48Z</time>
      </trkpt>
      <trkpt lat="51.215164337498" lon="4.48489736567">
        <ele>0</ele>
        <time>2019-05-25T11:03:55Z</time>
      </trkpt>
      <trkpt lat="51.215327113996" lon="4.484765015469">
        <ele>0</ele>
        <time>2019-05-25T11:04:02Z</time>
      </trkpt>
      <trkpt lat="51.215429121719" lon="4.484485562923">
        <ele>0</ele>
        <time>2019-05-25T11:04:10Z</time>
      </trkpt>
      <trkpt lat="51.215437755076" lon="4.484182138143">
        <ele>0</ele>
        <time>2019-05-25T11:04:17Z</time>
      </trkpt>
      <trkpt lat="51.215417219421" lon="4.483894555154">
        <ele>0</ele>
        <time>2019-05-25T11:04:24Z</time>
      </trkpt>
      <trkpt lat="51.215400707078" lon="4.483603619405">
        <ele>0</ele>
        <time>2019-05-25T11:04:31Z</time>
      </trkpt>
      <trkpt lat="51.215387715133" lon="4.483303295928">
        <ele>0</ele>
        <time>2019-05-25T11:04:39Z</time>
      </trkpt>
      <trkpt lat="51.215366425107" lon="4.482998530044">
        <ele>0</ele>
        <time>2019-05-25T11:04:47Z</time>
      </trkpt>
      <trkpt lat="51.21526810542" lon="4.482734919289">
        <ele>0</ele>
        <time>2019-05-25T11:04:55Z</time>
      </trkpt>
      <trkpt lat="51.215098455764" lon="4.482581195243">
        <ele>0</ele>
        <time>2019-05-25T11:05:03Z</time>
      </trkpt>
      <trkpt lat="51.214905588245" lon="4.482565772547">
        <ele>0</ele>
        <time>2019-05-25T11:05:11Z</time>
      </trkpt>
      <trkpt lat="51.214727221413" lon="4.482596198844">
        <ele>0</ele>
        <time>2019-05-25T11:05:19Z</time>
      </trkpt>
      <trkpt lat="51.214597134325" lon="4.48281781628">
        <ele>0</ele>
        <time>2019-05-25T11:05:27Z</time>
      </trkpt>
      <trkpt lat="51.21453301279" lon="4.483086372356">
        <ele>0</ele>
        <time>2019-05-25T11:05:34Z</time>
      </trkpt>
      <trkpt lat="51.214558074671" lon="4.483642511421">
        <ele>0</ele>
        <time>2019-05-25T11:05:47Z</time>
      </trkpt>
      <trkpt lat="51.214580538163" lon="4.483958676689">
        <ele>0</ele>
        <time>2019-05-25T11:05:54Z</time>
      </trkpt>
      <trkpt lat="51.214588500968" lon="4.48425112118">
        <ele>0</ele>
        <time>2019-05-25T11:06:00Z</time>
      </trkpt>
      <trkpt lat="51.214629320821" lon="4.48453694397">
        <ele>0</ele>
        <time>2019-05-25T11:06:06Z</time>
      </trkpt>
      <trkpt lat="51.214742895566" lon="4.484765518383">
        <ele>0</ele>
        <time>2019-05-25T11:06:12Z</time>
      </trkpt>
      <trkpt lat="51.214924028425" lon="4.484916308764">
        <ele>0</ele>
        <time>2019-05-25T11:06:19Z</time>
      </trkpt>
      <trkpt lat="51.215127708595" lon="4.48492251137">
        <ele>0</ele>
        <time>2019-05-25T11:06:26Z</time>
      </trkpt>
      <trkpt lat="51.215301213925" lon="4.484783958563">
        <ele>0</ele>
        <time>2019-05-25T11:06:33Z</time>
      </trkpt>
      <trkpt lat="51.215423254389" lon="4.484531998649">
        <ele>0</ele>
        <time>2019-05-25T11:06:40Z</time>
      </trkpt>
      <trkpt lat="51.215451752849" lon="4.484211055698">
        <ele>0</ele>
        <time>2019-05-25T11:06:47Z</time>
      </trkpt>
      <trkpt lat="51.215429792271" lon="4.483924897632">
        <ele>1.2</ele>
        <time>2019-05-25T11:06:53Z</time>
      </trkpt>
      <trkpt lat="51.215412106462" lon="4.483598254989">
        <ele>1.2</ele>
        <time>2019-05-25T11:07:00Z</time>
      </trkpt>
      <trkpt lat="51.21541059772" lon="4.483266750844">
        <ele>0</ele>
        <time>2019-05-25T11:07:07Z</time>
      </trkpt>
      <trkpt lat="51.215377573034" lon="4.482984448452">
        <ele>0</ele>
        <time>2019-05-25T11:07:13Z</time>
      </trkpt>
      <trkpt lat="51.215273469836" lon="4.482730895977">
        <ele>0</ele>
        <time>2019-05-25T11:07:20Z</time>
      </trkpt>
      <trkpt lat="51.21512645131" lon="4.482564599081">
        <ele>0</ele>
        <time>2019-05-25T11:07:28Z</time>
      </trkpt>
      <trkpt lat="51.214928303194" lon="4.482513134215">
        <ele>0</ele>
        <time>2019-05-25T11:07:36Z</time>
      </trkpt>
      <trkpt lat="51.214751948018" lon="4.482596617939">
        <ele>0</ele>
        <time>2019-05-25T11:07:43Z</time>
      </trkpt>
      <trkpt lat="51.214609874813" lon="4.482797615901">
        <ele>0</ele>
        <time>2019-05-25T11:07:50Z</time>
      </trkpt>
      <trkpt lat="51.214545250364" lon="4.48309022803">
        <ele>0</ele>
        <time>2019-05-25T11:07:57Z</time>
      </trkpt>
      <trkpt lat="51.214542149061" lon="4.483388958946">
        <ele>0</ele>
        <time>2019-05-25T11:08:04Z</time>
      </trkpt>
      <trkpt lat="51.21455480573" lon="4.483682912179">
        <ele>0</ele>
        <time>2019-05-25T11:08:12Z</time>
      </trkpt>
      <trkpt lat="51.214571820987" lon="4.484003771311">
        <ele>0</ele>
        <time>2019-05-25T11:08:20Z</time>
      </trkpt>
      <trkpt lat="51.214588668606" lon="4.484290683748">
        <ele>0</ele>
        <time>2019-05-25T11:08:27Z</time>
      </trkpt>
      <trkpt lat="51.214639630558" lon="4.48459477908">
        <ele>0</ele>
        <time>2019-05-25T11:08:35Z</time>
      </trkpt>
      <trkpt lat="51.214771394026" lon="4.484838021818">
        <ele>0</ele>
        <time>2019-05-25T11:08:43Z</time>
      </trkpt>
      <trkpt lat="51.214942552424" lon="4.484947154156">
        <ele>0</ele>
        <time>2019-05-25T11:08:50Z</time>
      </trkpt>
      <trkpt lat="51.215146316413" lon="4.484939945722">
        <ele>0</ele>
        <time>2019-05-25T11:08:58Z</time>
      </trkpt>
      <trkpt lat="51.215315714612" lon="4.484767781496">
        <ele>0</ele>
        <time>2019-05-25T11:09:06Z</time>
      </trkpt>
      <trkpt lat="51.21542317057" lon="4.484523030016">
        <ele>0</ele>
        <time>2019-05-25T11:09:14Z</time>
      </trkpt>
      <trkpt lat="51.215457955455" lon="4.484237123407">
        <ele>0</ele>
        <time>2019-05-25T11:09:22Z</time>
      </trkpt>
      <trkpt lat="51.215431887746" lon="4.483914587895">
        <ele>0</ele>
        <time>2019-05-25T11:09:30Z</time>
      </trkpt>
      <trkpt lat="51.215416297412" lon="4.483600434283">
        <ele>0</ele>
        <time>2019-05-25T11:09:38Z</time>
      </trkpt>
      <trkpt lat="51.21540640677" lon="4.483277731133">
        <ele>0</ele>
        <time>2019-05-25T11:09:46Z</time>
      </trkpt>
      <trkpt lat="51.215369694048" lon="4.482978078208">
        <ele>0</ele>
        <time>2019-05-25T11:09:53Z</time>
      </trkpt>
      <trkpt lat="51.21526475266" lon="4.482727375579">
        <ele>0</ele>
        <time>2019-05-25T11:10:00Z</time>
      </trkpt>
      <trkpt lat="51.215106418569" lon="4.482580189415">
        <ele>0</ele>
        <time>2019-05-25T11:10:07Z</time>
      </trkpt>
      <trkpt lat="51.214922352045" lon="4.482546410358">
        <ele>0</ele>
        <time>2019-05-25T11:10:14Z</time>
      </trkpt>
      <trkpt lat="51.214746248326" lon="4.482644478588">
        <ele>0</ele>
        <time>2019-05-25T11:10:21Z</time>
      </trkpt>
      <trkpt lat="51.214609371899" lon="4.482872717725">
        <ele>0</ele>
        <time>2019-05-25T11:10:28Z</time>
      </trkpt>
      <trkpt lat="51.214551620608" lon="4.48317069427">
        <ele>0</ele>
        <time>2019-05-25T11:10:34Z</time>
      </trkpt>
      <trkpt lat="51.214559331956" lon="4.483461378562">
        <ele>0</ele>
        <time>2019-05-25T11:10:40Z</time>
      </trkpt>
      <trkpt lat="51.214572742996" lon="4.483781902418">
        <ele>0</ele>
        <time>2019-05-25T11:10:47Z</time>
      </trkpt>
      <trkpt lat="51.214585483484" lon="4.484071832339">
        <ele>0</ele>
        <time>2019-05-25T11:10:53Z</time>
      </trkpt>
      <trkpt lat="51.214610210089" lon="4.484390428358">
        <ele>0</ele>
        <time>2019-05-25T11:11:00Z</time>
      </trkpt>
      <trkpt lat="51.214673912529" lon="4.484661750461">
        <ele>0.4</ele>
        <time>2019-05-25T11:11:06Z</time>
      </trkpt>
      <trkpt lat="51.214780614116" lon="4.484829304642">
        <ele>0.6</ele>
        <time>2019-05-25T11:11:11Z</time>
      </trkpt>
      <trkpt lat="51.215367682392" lon="4.484713718241">
        <ele>0</ele>
        <time>2019-05-25T11:14:27Z</time>
      </trkpt>
      <trkpt lat="51.215368269125" lon="4.484713885879">
        <ele>0</ele>
        <time>2019-05-25T11:14:28Z</time>
      </trkpt>
      <trkpt lat="51.215408250788" lon="4.483292734734">
        <ele>0</ele>
        <time>2019-05-25T11:19:12Z</time>
      </trkpt>
      <trkpt lat="51.215355109542" lon="4.482979922226">
        <ele>0</ele>
        <time>2019-05-25T11:19:18Z</time>
      </trkpt>
      <trkpt lat="51.215223429893" lon="4.482726956484">
        <ele>1.4</ele>
        <time>2019-05-25T11:19:24Z</time>
      </trkpt>
      <trkpt lat="51.215062832689" lon="4.482591169704">
        <ele>2.2</ele>
        <time>2019-05-25T11:19:30Z</time>
      </trkpt>
      <trkpt lat="51.214876754509" lon="4.482593013722">
        <ele>1.6</ele>
        <time>2019-05-25T11:19:36Z</time>
      </trkpt>
      <trkpt lat="51.214713642735" lon="4.482725531561">
        <ele>0.6</ele>
        <time>2019-05-25T11:19:42Z</time>
      </trkpt>
      <trkpt lat="51.214596044678" lon="4.48297288143">
        <ele>0</ele>
        <time>2019-05-25T11:19:48Z</time>
      </trkpt>
      <trkpt lat="51.214558074671" lon="4.483256105831">
        <ele>0</ele>
        <time>2019-05-25T11:19:54Z</time>
      </trkpt>
      <trkpt lat="51.214571988625" lon="4.483547125399">
        <ele>0</ele>
        <time>2019-05-25T11:20:00Z</time>
      </trkpt>
      <trkpt lat="51.214581208715" lon="4.483867481617">
        <ele>0</ele>
        <time>2019-05-25T11:20:07Z</time>
      </trkpt>
      <trkpt lat="51.214590512624" lon="4.484186496731">
        <ele>0</ele>
        <time>2019-05-25T11:20:14Z</time>
      </trkpt>
      <trkpt lat="51.214613059935" lon="4.484491430253">
        <ele>0</ele>
        <time>2019-05-25T11:20:21Z</time>
      </trkpt>
      <trkpt lat="51.214720432074" lon="4.484755795379">
        <ele>0.4</ele>
        <time>2019-05-25T11:20:28Z</time>
      </trkpt>
      <trkpt lat="51.214879101441" lon="4.484908681235">
        <ele>1.4</ele>
        <time>2019-05-25T11:20:34Z</time>
      </trkpt>
      <trkpt lat="51.215064341431" lon="4.484905915208">
        <ele>3.4</ele>
        <time>2019-05-25T11:20:40Z</time>
      </trkpt>
      <trkpt lat="51.215255197294" lon="4.484773900283">
        <ele>3.8</ele>
        <time>2019-05-25T11:20:47Z</time>
      </trkpt>
      <trkpt lat="51.215381177251" lon="4.484549097725">
        <ele>4.2</ele>
        <time>2019-05-25T11:20:53Z</time>
      </trkpt>
      <trkpt lat="51.21543071428" lon="4.484268555532">
        <ele>4.4</ele>
        <time>2019-05-25T11:20:59Z</time>
      </trkpt>
      <trkpt lat="51.215414537213" lon="4.483948786047">
        <ele>4.8</ele>
        <time>2019-05-25T11:21:06Z</time>
      </trkpt>
      <trkpt lat="51.215392660454" lon="4.483628010734">
        <ele>7.2</ele>
        <time>2019-05-25T11:21:13Z</time>
      </trkpt>
      <trkpt lat="51.215371873342" lon="4.483298769702">
        <ele>8.4</ele>
        <time>2019-05-25T11:21:20Z</time>
      </trkpt>
      <trkpt lat="51.21536868822" lon="4.483259290953">
        <ele>8.2</ele>
        <time>2019-05-25T11:21:21Z</time>
      </trkpt>
      <trkpt lat="51.215418895801" lon="4.483831942361">
        <ele>0.2</ele>
        <time>2019-05-25T11:23:51Z</time>
      </trkpt>
      <trkpt lat="51.215400707078" lon="4.483544443191">
        <ele>1.6</ele>
        <time>2019-05-25T11:23:57Z</time>
      </trkpt>
      <trkpt lat="51.215396851404" lon="4.483230708674">
        <ele>3.6</ele>
        <time>2019-05-25T11:24:02Z</time>
      </trkpt>
      <trkpt lat="51.215339686846" lon="4.482942036038">
        <ele>4.6</ele>
        <time>2019-05-25T11:24:07Z</time>
      </trkpt>
      <trkpt lat="51.215207839559" lon="4.482709354494">
        <ele>5.4</ele>
        <time>2019-05-25T11:24:12Z</time>
      </trkpt>
      <trkpt lat="51.215042045577" lon="4.482596785577">
        <ele>6</ele>
        <time>2019-05-25T11:24:17Z</time>
      </trkpt>
      <trkpt lat="51.214836772846" lon="4.482628888254">
        <ele>4.2</ele>
        <time>2019-05-25T11:24:23Z</time>
      </trkpt>
      <trkpt lat="51.214676091823" lon="4.48283458008">
        <ele>2.6</ele>
        <time>2019-05-25T11:24:29Z</time>
      </trkpt>
      <trkpt lat="51.21459755342" lon="4.483146638217">
        <ele>3</ele>
        <time>2019-05-25T11:24:35Z</time>
      </trkpt>
      <trkpt lat="51.214596799049" lon="4.483465150417">
        <ele>2.2</ele>
        <time>2019-05-25T11:24:41Z</time>
      </trkpt>
      <trkpt lat="51.214602917836" lon="4.483778717296">
        <ele>1</ele>
        <time>2019-05-25T11:24:47Z</time>
      </trkpt>
      <trkpt lat="51.21460593532" lon="4.484088428501">
        <ele>0.6</ele>
        <time>2019-05-25T11:24:53Z</time>
      </trkpt>
      <trkpt lat="51.214620519826" lon="4.484390344539">
        <ele>0.2</ele>
        <time>2019-05-25T11:24:59Z</time>
      </trkpt>
      <trkpt lat="51.214695956926" lon="4.484653871475">
        <ele>0.6</ele>
        <time>2019-05-25T11:25:05Z</time>
      </trkpt>
      <trkpt lat="51.214833252448" lon="4.484845816985">
        <ele>0.4</ele>
        <time>2019-05-25T11:25:11Z</time>
      </trkpt>
      <trkpt lat="51.215024695044" lon="4.484910692891">
        <ele>0</ele>
        <time>2019-05-25T11:25:17Z</time>
      </trkpt>
      <trkpt lat="51.215217394925" lon="4.484829639918">
        <ele>2.2</ele>
        <time>2019-05-25T11:25:23Z</time>
      </trkpt>
      <trkpt lat="51.215367263297" lon="4.484598718573">
        <ele>4.2</ele>
        <time>2019-05-25T11:25:29Z</time>
      </trkpt>
      <trkpt lat="51.21542987609" lon="4.484300490571">
        <ele>5.6</ele>
        <time>2019-05-25T11:25:35Z</time>
      </trkpt>
      <trkpt lat="51.215415207765" lon="4.483983654751">
        <ele>6.4</ele>
        <time>2019-05-25T11:25:41Z</time>
      </trkpt>
      <trkpt lat="51.21540137763" lon="4.483682325446">
        <ele>7.4</ele>
        <time>2019-05-25T11:25:47Z</time>
      </trkpt>
      <trkpt lat="51.215383524183" lon="4.483374877354">
        <ele>7.8</ele>
        <time>2019-05-25T11:25:53Z</time>
      </trkpt>
      <trkpt lat="51.215357624112" lon="4.483065249968">
        <ele>8</ele>
        <time>2019-05-25T11:25:59Z</time>
      </trkpt>
      <trkpt lat="51.215260729348" lon="4.482803315593">
        <ele>8</ele>
        <time>2019-05-25T11:26:05Z</time>
      </trkpt>
      <trkpt lat="51.215096444108" lon="4.482644981502">
        <ele>8</ele>
        <time>2019-05-25T11:26:11Z</time>
      </trkpt>
      <trkpt lat="51.214914808335" lon="4.482614219929">
        <ele>6.6</ele>
        <time>2019-05-25T11:26:17Z</time>
      </trkpt>
      <trkpt lat="51.214777848089" lon="4.482691920142">
        <ele>4.4</ele>
        <time>2019-05-25T11:26:22Z</time>
      </trkpt>
      <trkpt lat="51.215160230367" lon="4.482609526065">
        <ele>4.8</ele>
        <time>2019-05-25T11:27:08Z</time>
      </trkpt>
      <trkpt lat="51.215179005823" lon="4.482625619313">
        <ele>5</ele>
        <time>2019-05-25T11:27:09Z</time>
      </trkpt>
      <trkpt lat="51.215407915512" lon="4.483170023718">
        <ele>2.4</ele>
        <time>2019-05-25T11:29:57Z</time>
      </trkpt>
      <trkpt lat="51.215429540814" lon="4.483510664134">
        <ele>2.8</ele>
        <time>2019-05-25T11:30:04Z</time>
      </trkpt>
      <trkpt lat="51.21544077256" lon="4.483845688677">
        <ele>2.8</ele>
        <time>2019-05-25T11:30:10Z</time>
      </trkpt>
      <trkpt lat="51.215450579383" lon="4.484163446506">
        <ele>1.6</ele>
        <time>2019-05-25T11:30:16Z</time>
      </trkpt>
      <trkpt lat="51.215438509447" lon="4.48445228678">
        <ele>0.8</ele>
        <time>2019-05-25T11:30:21Z</time>
      </trkpt>
      <trkpt lat="51.215361563605" lon="4.484716903363">
        <ele>0.8</ele>
        <time>2019-05-25T11:30:26Z</time>
      </trkpt>
      <trkpt lat="51.215218819848" lon="4.484900886068">
        <ele>2</ele>
        <time>2019-05-25T11:30:31Z</time>
      </trkpt>
      <trkpt lat="51.215042464672" lon="4.484975987892">
        <ele>2.4</ele>
        <time>2019-05-25T11:30:36Z</time>
      </trkpt>
      <trkpt lat="51.214848423687" lon="4.484941622102">
        <ele>2.6</ele>
        <time>2019-05-25T11:30:42Z</time>
      </trkpt>
      <trkpt lat="51.214718001323" lon="4.484725285263">
        <ele>2.4</ele>
        <time>2019-05-25T11:30:47Z</time>
      </trkpt>
      <trkpt lat="51.214621106559" lon="4.484476929566">
        <ele>3.6</ele>
        <time>2019-05-25T11:30:52Z</time>
      </trkpt>
      <trkpt lat="51.214594535936" lon="4.484147688534">
        <ele>4.4</ele>
        <time>2019-05-25T11:30:58Z</time>
      </trkpt>
      <trkpt lat="51.214590344986" lon="4.483834708388">
        <ele>6.6</ele>
        <time>2019-05-25T11:31:04Z</time>
      </trkpt>
      <trkpt lat="51.214577353041" lon="4.483538492042">
        <ele>9.2</ele>
        <time>2019-05-25T11:31:10Z</time>
      </trkpt>
      <trkpt lat="51.214578694145" lon="4.483246466646">
        <ele>10</ele>
        <time>2019-05-25T11:31:16Z</time>
      </trkpt>
      <trkpt lat="51.214613898125" lon="4.482962990788">
        <ele>11</ele>
        <time>2019-05-25T11:31:22Z</time>
      </trkpt>
      <trkpt lat="51.214731915277" lon="4.482726788846">
        <ele>11.6</ele>
        <time>2019-05-25T11:31:28Z</time>
      </trkpt>
      <trkpt lat="51.214895613784" lon="4.48260826878">
        <ele>10.4</ele>
        <time>2019-05-25T11:31:34Z</time>
      </trkpt>
      <trkpt lat="51.215085882914" lon="4.482636683421">
        <ele>8.4</ele>
        <time>2019-05-25T11:31:40Z</time>
      </trkpt>
      <trkpt lat="51.215256789855" lon="4.482795771883">
        <ele>7.8</ele>
        <time>2019-05-25T11:31:46Z</time>
      </trkpt>
      <trkpt lat="51.21536365908" lon="4.483061059018">
        <ele>7.2</ele>
        <time>2019-05-25T11:31:52Z</time>
      </trkpt>
      <trkpt lat="51.215395677938" lon="4.483367166006">
        <ele>5.8</ele>
        <time>2019-05-25T11:31:58Z</time>
      </trkpt>
      <trkpt lat="51.215407999331" lon="4.483666735112">
        <ele>4.2</ele>
        <time>2019-05-25T11:32:04Z</time>
      </trkpt>
      <trkpt lat="51.215415878317" lon="4.483966723313">
        <ele>2.6</ele>
        <time>2019-05-25T11:32:10Z</time>
      </trkpt>
      <trkpt lat="51.21543406704" lon="4.484274674319">
        <ele>2.6</ele>
        <time>2019-05-25T11:32:16Z</time>
      </trkpt>
      <trkpt lat="51.215421242733" lon="4.484383219924">
        <ele>2</ele>
        <time>2019-05-25T11:32:17Z</time>
      </trkpt>
      <trkpt lat="51.215341782321" lon="4.484679352451">
        <ele>2</ele>
        <time>2019-05-25T11:32:24Z</time>
      </trkpt>
      <trkpt lat="51.215186214257" lon="4.484889235227">
        <ele>3.2</ele>
        <time>2019-05-25T11:32:30Z</time>
      </trkpt>
      <trkpt lat="51.215007093054" lon="4.484950087821">
        <ele>3.6</ele>
        <time>2019-05-25T11:32:36Z</time>
      </trkpt>
      <trkpt lat="51.214828726222" lon="4.48486299988">
        <ele>3.6</ele>
        <time>2019-05-25T11:32:42Z</time>
      </trkpt>
      <trkpt lat="51.214688329397" lon="4.484666192868">
        <ele>4.4</ele>
        <time>2019-05-25T11:32:48Z</time>
      </trkpt>
      <trkpt lat="51.21460844989" lon="4.484404761407">
        <ele>6.8</ele>
        <time>2019-05-25T11:32:54Z</time>
      </trkpt>
      <trkpt lat="51.214596212316" lon="4.484110891993">
        <ele>8.8</ele>
        <time>2019-05-25T11:33:00Z</time>
      </trkpt>
      <trkpt lat="51.214592021366" lon="4.483809311231">
        <ele>9.8</ele>
        <time>2019-05-25T11:33:06Z</time>
      </trkpt>
      <trkpt lat="51.214586824588" lon="4.483497085456">
        <ele>10</ele>
        <time>2019-05-25T11:33:12Z</time>
      </trkpt>
      <trkpt lat="51.214585567303" lon="4.483184356767">
        <ele>10.6</ele>
        <time>2019-05-25T11:33:18Z</time>
      </trkpt>
      <trkpt lat="51.214658489833" lon="4.482880177616">
        <ele>10.8</ele>
        <time>2019-05-25T11:33:24Z</time>
      </trkpt>
      <trkpt lat="51.214811878603" lon="4.482662667311">
        <ele>9.6</ele>
        <time>2019-05-25T11:33:30Z</time>
      </trkpt>
      <trkpt lat="51.215008601796" lon="4.482595109197">
        <ele>7.8</ele>
        <time>2019-05-25T11:33:36Z</time>
      </trkpt>
      <trkpt lat="51.215189818474" lon="4.482684460251">
        <ele>6.8</ele>
        <time>2019-05-25T11:33:41Z</time>
      </trkpt>
      <trkpt lat="51.215331053489" lon="4.482899204529">
        <ele>5.8</ele>
        <time>2019-05-25T11:33:47Z</time>
      </trkpt>
      <trkpt lat="51.215395677938" lon="4.483188882993">
        <ele>5</ele>
        <time>2019-05-25T11:33:53Z</time>
      </trkpt>
      <trkpt lat="51.215402551096" lon="4.483494906162">
        <ele>4.6</ele>
        <time>2019-05-25T11:33:59Z</time>
      </trkpt>
      <trkpt lat="51.215414537213" lon="4.483782740608">
        <ele>3.2</ele>
        <time>2019-05-25T11:34:05Z</time>
      </trkpt>
      <trkpt lat="51.215418309068" lon="4.484109718527">
        <ele>0.2</ele>
        <time>2019-05-25T11:34:12Z</time>
      </trkpt>
      <trkpt lat="51.21541059772" lon="4.484406689244">
        <ele>0</ele>
        <time>2019-05-25T11:34:18Z</time>
      </trkpt>
      <trkpt lat="51.215337842828" lon="4.484674910044">
        <ele>0</ele>
        <time>2019-05-25T11:34:24Z</time>
      </trkpt>
      <trkpt lat="51.215141035816" lon="4.484898790593">
        <ele>0</ele>
        <time>2019-05-25T11:34:32Z</time>
      </trkpt>
      <trkpt lat="51.215400707078" lon="4.483283430825">
        <ele>2.6</ele>
        <time>2019-05-25T11:41:05Z</time>
      </trkpt>
      <trkpt lat="51.215364413451" lon="4.482991070153">
        <ele>3.6</ele>
        <time>2019-05-25T11:41:11Z</time>
      </trkpt>
      <trkpt lat="51.215239187865" lon="4.482740199886">
        <ele>3.6</ele>
        <time>2019-05-25T11:41:18Z</time>
      </trkpt>
      <trkpt lat="51.215069705847" lon="4.482602066174">
        <ele>4.6</ele>
        <time>2019-05-25T11:41:24Z</time>
      </trkpt>
      <trkpt lat="51.214879101441" lon="4.482605418934">
        <ele>4.6</ele>
        <time>2019-05-25T11:41:30Z</time>
      </trkpt>
      <trkpt lat="51.214698052401" lon="4.48272561538">
        <ele>4.4</ele>
        <time>2019-05-25T11:41:36Z</time>
      </trkpt>
      <trkpt lat="51.214581460172" lon="4.482955949992">
        <ele>3.6</ele>
        <time>2019-05-25T11:41:42Z</time>
      </trkpt>
      <trkpt lat="51.21452966003" lon="4.483278401685">
        <ele>3.8</ele>
        <time>2019-05-25T11:41:48Z</time>
      </trkpt>
      <trkpt lat="51.214548351667" lon="4.483584927768">
        <ele>4.6</ele>
        <time>2019-05-25T11:41:54Z</time>
      </trkpt>
      <trkpt lat="51.214568384408" lon="4.483885754159">
        <ele>4.6</ele>
        <time>2019-05-25T11:42:01Z</time>
      </trkpt>
      <trkpt lat="51.214581292534" lon="4.484180964677">
        <ele>6</ele>
        <time>2019-05-25T11:42:08Z</time>
      </trkpt>
      <trkpt lat="51.214601828189" lon="4.484497213764">
        <ele>7</ele>
        <time>2019-05-25T11:42:15Z</time>
      </trkpt>
      <trkpt lat="51.214697130392" lon="4.484775744301">
        <ele>6</ele>
        <time>2019-05-25T11:42:22Z</time>
      </trkpt>
      <trkpt lat="51.214859403976" lon="4.484948746717">
        <ele>3.6</ele>
        <time>2019-05-25T11:42:29Z</time>
      </trkpt>
      <trkpt lat="51.21505352878" lon="4.484997277918">
        <ele>1.6</ele>
        <time>2019-05-25T11:42:36Z</time>
      </trkpt>
      <trkpt lat="51.21522954868" lon="4.484886050105">
        <ele>0</ele>
        <time>2019-05-25T11:42:43Z</time>
      </trkpt>
      <trkpt lat="51.215380255242" lon="4.484671473465">
        <ele>0</ele>
        <time>2019-05-25T11:42:50Z</time>
      </trkpt>
      <trkpt lat="51.215457117265" lon="4.484393781118">
        <ele>0</ele>
        <time>2019-05-25T11:42:57Z</time>
      </trkpt>
      <trkpt lat="51.215450411745" lon="4.484079962782">
        <ele>1</ele>
        <time>2019-05-25T11:43:04Z</time>
      </trkpt>
      <trkpt lat="51.21543490523" lon="4.483756253804">
        <ele>3.6</ele>
        <time>2019-05-25T11:43:11Z</time>
      </trkpt>
      <trkpt lat="51.215419147258" lon="4.483426761315">
        <ele>4.8</ele>
        <time>2019-05-25T11:43:18Z</time>
      </trkpt>
      <trkpt lat="51.215408502245" lon="4.48313381391">
        <ele>4.2</ele>
        <time>2019-05-25T11:43:24Z</time>
      </trkpt>
      <trkpt lat="51.21533767519" lon="4.482829718578">
        <ele>2.8</ele>
        <time>2019-05-25T11:43:31Z</time>
      </trkpt>
      <trkpt lat="51.215307332712" lon="4.482759562075">
        <ele>2.4</ele>
        <time>2019-05-25T11:43:33Z</time>
      </trkpt>
      <trkpt lat="51.215410010987" lon="4.48415892028">
        <ele>3.6</ele>
        <time>2019-05-25T11:47:48Z</time>
      </trkpt>
      <trkpt lat="51.215394253015" lon="4.483840994813">
        <ele>5.2</ele>
        <time>2019-05-25T11:47:54Z</time>
      </trkpt>
      <trkpt lat="51.215378578862" lon="4.483538743499">
        <ele>6.8</ele>
        <time>2019-05-25T11:47:59Z</time>
      </trkpt>
      <trkpt lat="51.215366341288" lon="4.48323355852">
        <ele>8</ele>
        <time>2019-05-25T11:48:04Z</time>
      </trkpt>
      <trkpt lat="51.215312697128" lon="4.482922254754">
        <ele>8.6</ele>
        <time>2019-05-25T11:48:10Z</time>
      </trkpt>
      <trkpt lat="51.215164924231" lon="4.482704241535">
        <ele>6.4</ele>
        <time>2019-05-25T11:48:16Z</time>
      </trkpt>
      <trkpt lat="51.214966859934" lon="4.48262419439">
        <ele>5</ele>
        <time>2019-05-25T11:48:22Z</time>
      </trkpt>
      <trkpt lat="51.214790085663" lon="4.482692255418">
        <ele>4</ele>
        <time>2019-05-25T11:48:28Z</time>
      </trkpt>
      <trkpt lat="51.214761922479" lon="4.48271723348">
        <ele>3.4</ele>
        <time>2019-05-25T11:48:29Z</time>
      </trkpt>
      <trkpt lat="51.214584812932" lon="4.483297428598">
        <ele>2.4</ele>
        <time>2019-05-25T11:48:40Z</time>
      </trkpt>
      <trkpt lat="51.214609455718" lon="4.483583251388">
        <ele>2</ele>
        <time>2019-05-25T11:48:46Z</time>
      </trkpt>
      <trkpt lat="51.214624291681" lon="4.483898746104">
        <ele>1.4</ele>
        <time>2019-05-25T11:48:52Z</time>
      </trkpt>
      <trkpt lat="51.214655304711" lon="4.484220527245">
        <ele>2</ele>
        <time>2019-05-25T11:48:58Z</time>
      </trkpt>
      <trkpt lat="51.214690676329" lon="4.48454532587">
        <ele>2</ele>
        <time>2019-05-25T11:49:04Z</time>
      </trkpt>
      <trkpt lat="51.214807771472" lon="4.484784461477">
        <ele>1.6</ele>
        <time>2019-05-25T11:49:10Z</time>
      </trkpt>
      <trkpt lat="51.214980354793" lon="4.484896192204">
        <ele>1.6</ele>
        <time>2019-05-25T11:49:16Z</time>
      </trkpt>
      <trkpt lat="51.215166097697" lon="4.484856629636">
        <ele>1</ele>
        <time>2019-05-25T11:49:22Z</time>
      </trkpt>
      <trkpt lat="51.215320408476" lon="4.484664600307">
        <ele>1.2</ele>
        <time>2019-05-25T11:49:28Z</time>
      </trkpt>
      <trkpt lat="51.215404395114" lon="4.484371233807">
        <ele>0.6</ele>
        <time>2019-05-25T11:49:34Z</time>
      </trkpt>
      <trkpt lat="51.215400455621" lon="4.484069401588">
        <ele>0.8</ele>
        <time>2019-05-25T11:49:40Z</time>
      </trkpt>
      <trkpt lat="51.215380674337" lon="4.48376664736">
        <ele>2.2</ele>
        <time>2019-05-25T11:49:46Z</time>
      </trkpt>
      <trkpt lat="51.215361815062" lon="4.48346908991">
        <ele>3.4</ele>
        <time>2019-05-25T11:49:52Z</time>
      </trkpt>
      <trkpt lat="51.215353516981" lon="4.483135406471">
        <ele>6</ele>
        <time>2019-05-25T11:49:59Z</time>
      </trkpt>
      <trkpt lat="51.215157129064" lon="4.482680520758">
        <ele>6.6</ele>
        <time>2019-05-25T11:50:11Z</time>
      </trkpt>
      <trkpt lat="51.215052606771" lon="4.482572310429">
        <ele>6.4</ele>
        <time>2019-05-25T11:50:14Z</time>
      </trkpt>
    </trkseg>
  </trk>
</gpx>